sensor_id;sensor_type;location;lat;lon;timestamp;pressure;altitude;pressure_sealevel;temperature;humidity
70971;BME280;58632;51.718;19.446;2023-02-18T00:00:07;98809.98;;;6.38;100.00
70971;BME280;58632;51.718;19.446;2023-02-18T00:02:52;98815.96;;;6.31;100.00
70971;BME280;58632;51.718;19.446;2023-02-18T00:05:20;98815.41;;;6.25;100.00
70971;BME280;58632;51.718;19.446;2023-02-18T00:07:46;98821.63;;;6.17;100.00
70971;BME280;58632;51.718;19.446;2023-02-18T00:10:12;98820.17;;;6.13;100.00
70971;BME280;58632;51.718;19.446;2023-02-18T00:12:38;98827.14;;;6.14;100.00
70971;BME280;58632;51.718;19.446;2023-02-18T00:15:04;98837.71;;;6.18;100.00
70971;BME280;58632;51.718;19.446;2023-02-18T00:17:30;98845.44;;;6.15;100.00
70971;BME280;58632;51.718;19.446;2023-02-18T00:19:56;98847.78;;;6.09;100.00
70971;BME280;58632;51.718;19.446;2023-02-18T00:22:21;98850.17;;;6.06;100.00
70971;BME280;58632;51.718;19.446;2023-02-18T00:24:47;98848.89;;;6.03;100.00
70971;BME280;58632;51.718;19.446;2023-02-18T00:27:13;98848.20;;;6.06;100.00
70971;BME280;58632;51.718;19.446;2023-02-18T00:29:38;98846.19;;;6.08;100.00
70971;BME280;58632;51.718;19.446;2023-02-18T00:32:04;98856.56;;;6.11;100.00
70971;BME280;58632;51.718;19.446;2023-02-18T00:34:29;98858.50;;;6.11;100.00
70971;BME280;58632;51.718;19.446;2023-02-18T00:36:55;98864.24;;;6.14;100.00
70971;BME280;58632;51.718;19.446;2023-02-18T00:39:20;98863.26;;;6.24;100.00
70971;BME280;58632;51.718;19.446;2023-02-18T00:41:46;98863.17;;;6.32;100.00
70971;BME280;58632;51.718;19.446;2023-02-18T00:44:12;98872.77;;;6.37;100.00
70971;BME280;58632;51.718;19.446;2023-02-18T00:46:37;98874.16;;;6.38;100.00
70971;BME280;58632;51.718;19.446;2023-02-18T00:49:04;98875.28;;;6.37;100.00
70971;BME280;58632;51.718;19.446;2023-02-18T00:51:29;98879.84;;;6.33;100.00
70971;BME280;58632;51.718;19.446;2023-02-18T00:53:55;98884.14;;;6.27;100.00
70971;BME280;58632;51.718;19.446;2023-02-18T00:56:20;98877.70;;;6.22;100.00
70971;BME280;58632;51.718;19.446;2023-02-18T00:58:46;98886.64;;;6.21;100.00
70971;BME280;58632;51.718;19.446;2023-02-18T01:01:11;98881.16;;;6.17;100.00
70971;BME280;58632;51.718;19.446;2023-02-18T01:03:38;98886.72;;;6.14;100.00
70971;BME280;58632;51.718;19.446;2023-02-18T01:06:04;98888.16;;;6.12;100.00
70971;BME280;58632;51.718;19.446;2023-02-18T01:08:29;98879.98;;;6.09;100.00
70971;BME280;58632;51.718;19.446;2023-02-18T01:10:56;98878.11;;;6.04;100.00
70971;BME280;58632;51.718;19.446;2023-02-18T01:13:22;98883.29;;;5.97;100.00
70971;BME280;58632;51.718;19.446;2023-02-18T01:15:47;98885.14;;;5.89;100.00
70971;BME280;58632;51.718;19.446;2023-02-18T01:18:13;98889.25;;;5.84;100.00
70971;BME280;58632;51.718;19.446;2023-02-18T01:20:39;98886.79;;;5.77;100.00
70971;BME280;58632;51.718;19.446;2023-02-18T01:23:05;98887.41;;;5.67;100.00
70971;BME280;58632;51.718;19.446;2023-02-18T01:25:31;98892.39;;;5.60;100.00
70971;BME280;58632;51.718;19.446;2023-02-18T01:27:57;98884.92;;;5.52;100.00
70971;BME280;58632;51.718;19.446;2023-02-18T01:30:23;98886.98;;;5.44;100.00
70971;BME280;58632;51.718;19.446;2023-02-18T01:32:48;98883.98;;;5.41;100.00
70971;BME280;58632;51.718;19.446;2023-02-18T01:35:15;98883.35;;;5.36;100.00
70971;BME280;58632;51.718;19.446;2023-02-18T01:37:41;98877.15;;;5.35;100.00
70971;BME280;58632;51.718;19.446;2023-02-18T01:40:07;98880.36;;;5.36;100.00
70971;BME280;58632;51.718;19.446;2023-02-18T01:42:33;98877.29;;;5.36;100.00
70971;BME280;58632;51.718;19.446;2023-02-18T01:47:43;98885.41;;;5.36;100.00
70971;BME280;58632;51.718;19.446;2023-02-18T01:50:08;98880.04;;;5.29;100.00
70971;BME280;58632;51.718;19.446;2023-02-18T01:52:34;98886.16;;;5.31;100.00
70971;BME280;58632;51.718;19.446;2023-02-18T01:54:59;98890.39;;;5.31;100.00
70971;BME280;58632;51.718;19.446;2023-02-18T01:57:30;98894.67;;;5.29;100.00
70971;BME280;58632;51.718;19.446;2023-02-18T02:00:04;98897.68;;;5.25;100.00
70971;BME280;58632;51.718;19.446;2023-02-18T02:02:30;98901.35;;;5.21;100.00
70971;BME280;58632;51.718;19.446;2023-02-18T02:04:56;98902.78;;;5.18;100.00
70971;BME280;58632;51.718;19.446;2023-02-18T02:07:22;98898.14;;;5.13;100.00
70971;BME280;58632;51.718;19.446;2023-02-18T02:09:49;98897.98;;;5.11;100.00
70971;BME280;58632;51.718;19.446;2023-02-18T02:12:33;98893.28;;;5.09;100.00
70971;BME280;58632;51.718;19.446;2023-02-18T02:15:04;98895.05;;;5.08;100.00
70971;BME280;58632;51.718;19.446;2023-02-18T02:17:36;98900.64;;;5.03;100.00
70971;BME280;58632;51.718;19.446;2023-02-18T02:28:33;98900.27;;;4.92;100.00
70971;BME280;58632;51.718;19.446;2023-02-18T02:30:50;98901.75;;;4.92;100.00
70971;BME280;58632;51.718;19.446;2023-02-18T02:35:53;98905.33;;;4.85;100.00
70971;BME280;58632;51.718;19.446;2023-02-18T02:38:23;98900.80;;;4.84;100.00
70971;BME280;58632;51.718;19.446;2023-02-18T02:41:01;98904.05;;;4.84;100.00
70971;BME280;58632;51.718;19.446;2023-02-18T02:43:48;98897.88;;;4.86;100.00
70971;BME280;58632;51.718;19.446;2023-02-18T02:49:13;98901.65;;;4.80;100.00
70971;BME280;58632;51.718;19.446;2023-02-18T02:51:46;98901.05;;;4.76;100.00
70971;BME280;58632;51.718;19.446;2023-02-18T02:54:22;98913.50;;;4.76;100.00
70971;BME280;58632;51.718;19.446;2023-02-18T02:56:48;98920.31;;;4.73;100.00
70971;BME280;58632;51.718;19.446;2023-02-18T02:59:15;98929.89;;;4.68;100.00
70971;BME280;58632;51.718;19.446;2023-02-18T03:04:34;98937.34;;;4.57;100.00
70971;BME280;58632;51.718;19.446;2023-02-18T03:07:13;98936.20;;;4.57;100.00
70971;BME280;58632;51.718;19.446;2023-02-18T03:09:52;98936.42;;;4.56;100.00
70971;BME280;58632;51.718;19.446;2023-02-18T03:12:28;98941.14;;;4.54;100.00
70971;BME280;58632;51.718;19.446;2023-02-18T03:17:29;98946.79;;;4.46;100.00
70971;BME280;58632;51.718;19.446;2023-02-18T03:20:08;98947.09;;;4.41;100.00
70971;BME280;58632;51.718;19.446;2023-02-18T03:22:38;98950.16;;;4.37;100.00
70971;BME280;58632;51.718;19.446;2023-02-18T03:25:05;98951.83;;;4.35;100.00
70971;BME280;58632;51.718;19.446;2023-02-18T03:29:59;98953.84;;;4.35;100.00
70971;BME280;58632;51.718;19.446;2023-02-18T03:32:25;98949.10;;;4.36;100.00
70971;BME280;58632;51.718;19.446;2023-02-18T03:34:54;98956.89;;;4.37;100.00
70971;BME280;58632;51.718;19.446;2023-02-18T03:37:21;98951.27;;;4.36;100.00
70971;BME280;58632;51.718;19.446;2023-02-18T03:39:49;98953.56;;;4.37;100.00
70971;BME280;58632;51.718;19.446;2023-02-18T03:42:16;98957.06;;;4.36;100.00
70971;BME280;58632;51.718;19.446;2023-02-18T03:44:43;98962.55;;;4.35;100.00
70971;BME280;58632;51.718;19.446;2023-02-18T03:47:08;98960.27;;;4.33;100.00
70971;BME280;58632;51.718;19.446;2023-02-18T03:49:34;98965.08;;;4.31;100.00
70971;BME280;58632;51.718;19.446;2023-02-18T03:51:59;98972.20;;;4.27;100.00
70971;BME280;58632;51.718;19.446;2023-02-18T03:54:25;98979.42;;;4.23;100.00
70971;BME280;58632;51.718;19.446;2023-02-18T03:56:50;98984.36;;;4.22;100.00
70971;BME280;58632;51.718;19.446;2023-02-18T03:59:16;98988.10;;;4.23;100.00
70971;BME280;58632;51.718;19.446;2023-02-18T04:01:41;98990.85;;;4.24;100.00
70971;BME280;58632;51.718;19.446;2023-02-18T04:04:07;98989.94;;;4.22;100.00
70971;BME280;58632;51.718;19.446;2023-02-18T04:06:33;98995.64;;;4.23;100.00
70971;BME280;58632;51.718;19.446;2023-02-18T04:08:59;98998.16;;;4.27;100.00
70971;BME280;58632;51.718;19.446;2023-02-18T04:11:24;99009.95;;;4.34;100.00
70971;BME280;58632;51.718;19.446;2023-02-18T04:13:50;99007.79;;;4.40;100.00
70971;BME280;58632;51.718;19.446;2023-02-18T04:16:16;99017.17;;;4.42;100.00
70971;BME280;58632;51.718;19.446;2023-02-18T04:18:41;99017.37;;;4.46;100.00
70971;BME280;58632;51.718;19.446;2023-02-18T04:21:07;99021.86;;;4.50;100.00
70971;BME280;58632;51.718;19.446;2023-02-18T04:23:32;99016.36;;;4.54;100.00
70971;BME280;58632;51.718;19.446;2023-02-18T04:25:58;99015.43;;;4.59;100.00
70971;BME280;58632;51.718;19.446;2023-02-18T04:28:24;99013.90;;;4.63;100.00
70971;BME280;58632;51.718;19.446;2023-02-18T04:30:49;99009.55;;;4.64;100.00
70971;BME280;58632;51.718;19.446;2023-02-18T04:33:15;99013.09;;;4.66;100.00
70971;BME280;58632;51.718;19.446;2023-02-18T04:35:40;99019.05;;;4.66;100.00
70971;BME280;58632;51.718;19.446;2023-02-18T04:38:06;99012.38;;;4.63;100.00
70971;BME280;58632;51.718;19.446;2023-02-18T04:40:32;99011.79;;;4.61;100.00
70971;BME280;58632;51.718;19.446;2023-02-18T04:42:58;99014.11;;;4.58;100.00
70971;BME280;58632;51.718;19.446;2023-02-18T04:45:24;99025.48;;;4.55;100.00
70971;BME280;58632;51.718;19.446;2023-02-18T04:47:49;99019.85;;;4.52;100.00
70971;BME280;58632;51.718;19.446;2023-02-18T04:50:15;99023.08;;;4.49;100.00
70971;BME280;58632;51.718;19.446;2023-02-18T04:52:41;99018.98;;;4.44;100.00
70971;BME280;58632;51.718;19.446;2023-02-18T04:55:06;99020.42;;;4.42;100.00
70971;BME280;58632;51.718;19.446;2023-02-18T04:57:32;99026.63;;;4.44;100.00
70971;BME280;58632;51.718;19.446;2023-02-18T04:59:58;99019.45;;;4.43;100.00
70971;BME280;58632;51.718;19.446;2023-02-18T05:02:23;99017.73;;;4.41;100.00
70971;BME280;58632;51.718;19.446;2023-02-18T05:04:49;99012.25;;;4.39;100.00
70971;BME280;58632;51.718;19.446;2023-02-18T05:07:14;99012.94;;;4.36;100.00
70971;BME280;58632;51.718;19.446;2023-02-18T05:09:40;99021.02;;;4.34;100.00
70971;BME280;58632;51.718;19.446;2023-02-18T05:12:06;99022.42;;;4.32;100.00
70971;BME280;58632;51.718;19.446;2023-02-18T05:14:32;99031.41;;;4.29;100.00
70971;BME280;58632;51.718;19.446;2023-02-18T05:16:57;99033.39;;;4.28;100.00
70971;BME280;58632;51.718;19.446;2023-02-18T05:19:23;99025.77;;;4.26;100.00
70971;BME280;58632;51.718;19.446;2023-02-18T05:21:49;99029.52;;;4.24;100.00
70971;BME280;58632;51.718;19.446;2023-02-18T05:24:14;99034.02;;;4.22;100.00
70971;BME280;58632;51.718;19.446;2023-02-18T05:26:40;99047.27;;;4.20;100.00
70971;BME280;58632;51.718;19.446;2023-02-18T05:29:05;99042.77;;;4.24;100.00
70971;BME280;58632;51.718;19.446;2023-02-18T05:31:31;99029.47;;;4.29;100.00
70971;BME280;58632;51.718;19.446;2023-02-18T05:33:56;99037.20;;;4.32;100.00
70971;BME280;58632;51.718;19.446;2023-02-18T05:36:22;99034.23;;;4.31;100.00
70971;BME280;58632;51.718;19.446;2023-02-18T05:38:48;99041.52;;;4.30;100.00
70971;BME280;58632;51.718;19.446;2023-02-18T05:41:13;99035.94;;;4.27;100.00
70971;BME280;58632;51.718;19.446;2023-02-18T05:43:39;99042.31;;;4.26;100.00
70971;BME280;58632;51.718;19.446;2023-02-18T05:46:23;99042.80;;;4.25;100.00
70971;BME280;58632;51.718;19.446;2023-02-18T05:48:48;99045.35;;;4.25;100.00
70971;BME280;58632;51.718;19.446;2023-02-18T05:51:14;99048.20;;;4.23;100.00
70971;BME280;58632;51.718;19.446;2023-02-18T05:53:40;99057.88;;;4.21;100.00
70971;BME280;58632;51.718;19.446;2023-02-18T05:56:06;99059.62;;;4.17;100.00
70971;BME280;58632;51.718;19.446;2023-02-18T05:58:32;99057.19;;;4.14;100.00
70971;BME280;58632;51.718;19.446;2023-02-18T06:00:57;99058.23;;;4.10;100.00
70971;BME280;58632;51.718;19.446;2023-02-18T06:03:23;99063.91;;;4.06;100.00
70971;BME280;58632;51.718;19.446;2023-02-18T06:05:49;99073.59;;;4.09;100.00
70971;BME280;58632;51.718;19.446;2023-02-18T06:08:14;99073.56;;;4.14;100.00
70971;BME280;58632;51.718;19.446;2023-02-18T06:10:40;99072.81;;;4.16;100.00
70971;BME280;58632;51.718;19.446;2023-02-18T06:13:05;99073.02;;;4.20;100.00
70971;BME280;58632;51.718;19.446;2023-02-18T06:15:31;99075.77;;;4.23;100.00
70971;BME280;58632;51.718;19.446;2023-02-18T06:17:56;99083.52;;;4.28;100.00
70971;BME280;58632;51.718;19.446;2023-02-18T06:20:22;99085.01;;;4.29;100.00
70971;BME280;58632;51.718;19.446;2023-02-18T06:22:48;99084.58;;;4.32;100.00
70971;BME280;58632;51.718;19.446;2023-02-18T06:25:13;99086.59;;;4.35;100.00
70971;BME280;58632;51.718;19.446;2023-02-18T06:27:38;99094.58;;;4.34;100.00
70971;BME280;58632;51.718;19.446;2023-02-18T06:30:04;99089.05;;;4.31;100.00
70971;BME280;58632;51.718;19.446;2023-02-18T06:32:30;99077.73;;;4.28;100.00
70971;BME280;58632;51.718;19.446;2023-02-18T06:34:56;99086.39;;;4.28;100.00
70971;BME280;58632;51.718;19.446;2023-02-18T06:37:21;99088.30;;;4.30;100.00
70971;BME280;58632;51.718;19.446;2023-02-18T06:39:47;99087.08;;;4.35;100.00
70971;BME280;58632;51.718;19.446;2023-02-18T06:42:13;99087.17;;;4.45;100.00
70971;BME280;58632;51.718;19.446;2023-02-18T06:44:38;99086.20;;;4.56;100.00
70971;BME280;58632;51.718;19.446;2023-02-18T06:47:04;99082.02;;;4.63;100.00
70971;BME280;58632;51.718;19.446;2023-02-18T06:49:29;99075.06;;;4.67;100.00
70971;BME280;58632;51.718;19.446;2023-02-18T06:51:55;99079.23;;;4.78;100.00
70971;BME280;58632;51.718;19.446;2023-02-18T06:54:21;99077.48;;;4.91;100.00
70971;BME280;58632;51.718;19.446;2023-02-18T06:56:46;99083.63;;;5.01;100.00
70971;BME280;58632;51.718;19.446;2023-02-18T06:59:12;99089.65;;;5.06;100.00
70971;BME280;58632;51.718;19.446;2023-02-18T07:01:38;99091.71;;;5.13;100.00
70971;BME280;58632;51.718;19.446;2023-02-18T07:04:03;99095.45;;;5.16;100.00
70971;BME280;58632;51.718;19.446;2023-02-18T07:06:29;99102.13;;;5.26;100.00
70971;BME280;58632;51.718;19.446;2023-02-18T07:08:54;99103.23;;;5.46;100.00
70971;BME280;58632;51.718;19.446;2023-02-18T07:11:20;99098.02;;;5.60;100.00
70971;BME280;58632;51.718;19.446;2023-02-18T07:13:46;99104.08;;;5.62;100.00
70971;BME280;58632;51.718;19.446;2023-02-18T07:16:11;99104.31;;;5.66;100.00
70971;BME280;58632;51.718;19.446;2023-02-18T07:18:36;99103.45;;;5.70;100.00
70971;BME280;58632;51.718;19.446;2023-02-18T07:21:02;99111.31;;;5.72;100.00
70971;BME280;58632;51.718;19.446;2023-02-18T07:23:28;99110.23;;;5.73;100.00
70971;BME280;58632;51.718;19.446;2023-02-18T07:26:01;99115.62;;;5.78;100.00
70971;BME280;58632;51.718;19.446;2023-02-18T07:28:27;99115.85;;;5.80;100.00
70971;BME280;58632;51.718;19.446;2023-02-18T07:30:52;99115.77;;;5.74;100.00
70971;BME280;58632;51.718;19.446;2023-02-18T07:33:18;99118.98;;;5.71;100.00
70971;BME280;58632;51.718;19.446;2023-02-18T07:35:43;99131.14;;;5.71;100.00
70971;BME280;58632;51.718;19.446;2023-02-18T07:38:09;99133.54;;;5.74;100.00
70971;BME280;58632;51.718;19.446;2023-02-18T07:40:34;99131.77;;;5.77;100.00
70971;BME280;58632;51.718;19.446;2023-02-18T07:43:00;99127.87;;;5.84;100.00
70971;BME280;58632;51.718;19.446;2023-02-18T07:45:26;99123.27;;;6.01;100.00
70971;BME280;58632;51.718;19.446;2023-02-18T07:47:51;99118.05;;;6.21;100.00
70971;BME280;58632;51.718;19.446;2023-02-18T07:50:17;99115.79;;;6.38;100.00
70971;BME280;58632;51.718;19.446;2023-02-18T07:52:42;99117.48;;;6.51;100.00
70971;BME280;58632;51.718;19.446;2023-02-18T07:55:08;99112.66;;;6.61;100.00
70971;BME280;58632;51.718;19.446;2023-02-18T07:57:33;99119.75;;;6.67;100.00
70971;BME280;58632;51.718;19.446;2023-02-18T08:00:19;99118.54;;;6.74;100.00
70971;BME280;58632;51.718;19.446;2023-02-18T08:02:45;99121.94;;;6.78;100.00
70971;BME280;58632;51.718;19.446;2023-02-18T08:05:10;99126.48;;;6.84;100.00
70971;BME280;58632;51.718;19.446;2023-02-18T08:07:37;99132.23;;;6.88;100.00
70971;BME280;58632;51.718;19.446;2023-02-18T08:10:04;99131.00;;;6.92;100.00
70971;BME280;58632;51.718;19.446;2023-02-18T08:12:30;99135.73;;;6.94;100.00
70971;BME280;58632;51.718;19.446;2023-02-18T08:14:55;99135.29;;;6.98;100.00
70971;BME280;58632;51.718;19.446;2023-02-18T08:17:21;99132.69;;;7.00;100.00
70971;BME280;58632;51.718;19.446;2023-02-18T08:19:46;99130.25;;;6.95;100.00
70971;BME280;58632;51.718;19.446;2023-02-18T08:22:12;99135.73;;;6.86;100.00
70971;BME280;58632;51.718;19.446;2023-02-18T08:24:37;99128.52;;;6.79;100.00
70971;BME280;58632;51.718;19.446;2023-02-18T08:27:03;99133.71;;;6.88;100.00
70971;BME280;58632;51.718;19.446;2023-02-18T08:29:29;99138.21;;;6.97;100.00
70971;BME280;58632;51.718;19.446;2023-02-18T08:31:54;99137.89;;;7.03;100.00
70971;BME280;58632;51.718;19.446;2023-02-18T08:34:22;99132.45;;;7.25;100.00
70971;BME280;58632;51.718;19.446;2023-02-18T08:36:47;99129.02;;;7.51;100.00
70971;BME280;58632;51.718;19.446;2023-02-18T08:39:13;99130.77;;;7.78;100.00
70971;BME280;58632;51.718;19.446;2023-02-18T08:41:39;99134.98;;;7.96;100.00
70971;BME280;58632;51.718;19.446;2023-02-18T08:44:04;99134.08;;;8.12;100.00
70971;BME280;58632;51.718;19.446;2023-02-18T08:46:30;99139.88;;;8.22;100.00
70971;BME280;58632;51.718;19.446;2023-02-18T08:48:56;99136.67;;;8.23;100.00
70971;BME280;58632;51.718;19.446;2023-02-18T08:51:21;99140.08;;;8.19;100.00
70971;BME280;58632;51.718;19.446;2023-02-18T08:53:47;99138.30;;;8.17;100.00
70971;BME280;58632;51.718;19.446;2023-02-18T08:56:13;99150.41;;;8.12;100.00
70971;BME280;58632;51.718;19.446;2023-02-18T08:58:39;99149.70;;;7.99;100.00
70971;BME280;58632;51.718;19.446;2023-02-18T09:01:05;99151.69;;;7.81;100.00
70971;BME280;58632;51.718;19.446;2023-02-18T09:03:31;99146.06;;;7.63;100.00
70971;BME280;58632;51.718;19.446;2023-02-18T09:05:57;99147.00;;;7.47;100.00
70971;BME280;58632;51.718;19.446;2023-02-18T09:08:23;99150.68;;;7.35;100.00
70971;BME280;58632;51.718;19.446;2023-02-18T09:10:48;99152.68;;;7.21;100.00
70971;BME280;58632;51.718;19.446;2023-02-18T09:13:14;99148.34;;;7.09;100.00
70971;BME280;58632;51.718;19.446;2023-02-18T09:15:39;99149.61;;;6.98;100.00
70971;BME280;58632;51.718;19.446;2023-02-18T09:18:05;99148.85;;;6.90;100.00
70971;BME280;58632;51.718;19.446;2023-02-18T09:20:31;99143.38;;;6.81;100.00
70971;BME280;58632;51.718;19.446;2023-02-18T09:22:56;99137.88;;;6.75;100.00
70971;BME280;58632;51.718;19.446;2023-02-18T09:25:22;99142.89;;;6.66;100.00
70971;BME280;58632;51.718;19.446;2023-02-18T09:27:48;99141.95;;;6.58;100.00
70971;BME280;58632;51.718;19.446;2023-02-18T09:30:14;99145.94;;;6.57;100.00
70971;BME280;58632;51.718;19.446;2023-02-18T09:32:40;99156.29;;;6.57;100.00
70971;BME280;58632;51.718;19.446;2023-02-18T09:35:05;99156.54;;;6.58;100.00
70971;BME280;58632;51.718;19.446;2023-02-18T09:37:31;99156.95;;;6.65;100.00
70971;BME280;58632;51.718;19.446;2023-02-18T09:39:56;99152.83;;;6.73;100.00
70971;BME280;58632;51.718;19.446;2023-02-18T09:42:24;99156.33;;;6.85;100.00
70971;BME280;58632;51.718;19.446;2023-02-18T09:44:53;99156.15;;;6.94;100.00
70971;BME280;58632;51.718;19.446;2023-02-18T09:47:39;99158.65;;;6.97;100.00
70971;BME280;58632;51.718;19.446;2023-02-18T09:50:13;99157.56;;;6.98;100.00
70971;BME280;58632;51.718;19.446;2023-02-18T09:52:40;99153.02;;;7.03;100.00
70971;BME280;58632;51.718;19.446;2023-02-18T09:57:59;99155.93;;;7.08;100.00
70971;BME280;58632;51.718;19.446;2023-02-18T10:00:31;99150.14;;;7.11;100.00
70971;BME280;58632;51.718;19.446;2023-02-18T10:03:04;99146.60;;;7.13;100.00
70971;BME280;58632;51.718;19.446;2023-02-18T10:05:31;99144.41;;;7.19;100.00
70971;BME280;58632;51.718;19.446;2023-02-18T10:07:59;99147.53;;;7.21;100.00
70971;BME280;58632;51.718;19.446;2023-02-18T10:12:54;99142.42;;;7.25;100.00
70971;BME280;58632;51.718;19.446;2023-02-18T10:15:21;99143.27;;;7.25;100.00
70971;BME280;58632;51.718;19.446;2023-02-18T10:17:47;99150.60;;;7.30;100.00
70971;BME280;58632;51.718;19.446;2023-02-18T10:22:41;99143.20;;;7.43;100.00
70971;BME280;58632;51.718;19.446;2023-02-18T10:25:06;99144.84;;;7.45;100.00
70971;BME280;58632;51.718;19.446;2023-02-18T10:27:36;99147.02;;;7.48;100.00
70971;BME280;58632;51.718;19.446;2023-02-18T10:30:16;99137.55;;;7.52;100.00
70971;BME280;58632;51.718;19.446;2023-02-18T10:32:45;99136.48;;;7.64;100.00
70971;BME280;58632;51.718;19.446;2023-02-18T10:35:29;99137.88;;;7.77;100.00
70971;BME280;58632;51.718;19.446;2023-02-18T10:40:46;99119.17;;;7.99;100.00
70971;BME280;58632;51.718;19.446;2023-02-18T10:43:38;99113.23;;;8.15;100.00
70971;BME280;58632;51.718;19.446;2023-02-18T10:49:08;99100.45;;;8.18;100.00
70971;BME280;58632;51.718;19.446;2023-02-18T10:51:38;99097.04;;;8.22;100.00
70971;BME280;58632;51.718;19.446;2023-02-18T10:54:07;99096.02;;;8.27;100.00
70971;BME280;58632;51.718;19.446;2023-02-18T10:56:34;99098.13;;;8.36;100.00
70971;BME280;58632;51.718;19.446;2023-02-18T10:59:04;99098.97;;;8.43;99.77
70971;BME280;58632;51.718;19.446;2023-02-18T11:01:33;99094.77;;;8.44;98.48
70971;BME280;58632;51.718;19.446;2023-02-18T11:04:17;99095.27;;;8.41;97.29
70971;BME280;58632;51.718;19.446;2023-02-18T11:06:48;99082.42;;;8.48;99.13
70971;BME280;58632;51.718;19.446;2023-02-18T11:12:16;99070.84;;;8.69;100.00
70971;BME280;58632;51.718;19.446;2023-02-18T11:14:46;99070.66;;;8.84;99.20
70971;BME280;58632;51.718;19.446;2023-02-18T11:17:26;99064.87;;;8.91;98.80
70971;BME280;58632;51.718;19.446;2023-02-18T11:19:53;99060.35;;;8.91;96.74
70971;BME280;58632;51.718;19.446;2023-02-18T11:24:45;99050.41;;;8.79;96.02
70971;BME280;58632;51.718;19.446;2023-02-18T11:27:17;99048.94;;;8.79;99.13
70971;BME280;58632;51.718;19.446;2023-02-18T11:29:47;99040.13;;;8.88;99.96
70971;BME280;58632;51.718;19.446;2023-02-18T11:32:13;99038.05;;;9.02;100.00
70971;BME280;58632;51.718;19.446;2023-02-18T11:34:40;99039.83;;;9.11;96.31
70971;BME280;58632;51.718;19.446;2023-02-18T11:37:08;99039.52;;;9.17;96.63
70971;BME280;58632;51.718;19.446;2023-02-18T11:39:34;99029.86;;;9.25;95.23
70971;BME280;58632;51.718;19.446;2023-02-18T11:42:01;99023.77;;;9.31;90.84
70971;BME280;58632;51.718;19.446;2023-02-18T11:44:28;99025.69;;;9.35;90.78
70971;BME280;58632;51.718;19.446;2023-02-18T11:47:40;99021.05;;;9.44;91.20
70971;BME280;58632;51.718;19.446;2023-02-18T11:49:41;99015.36;;;9.49;87.38
70971;BME280;58632;51.718;19.446;2023-02-18T11:52:22;99007.65;;;9.39;86.28
70971;BME280;58632;51.718;19.446;2023-02-18T11:55:00;99000.35;;;9.21;82.90
70971;BME280;58632;51.718;19.446;2023-02-18T11:57:27;98998.19;;;9.12;88.82
70971;BME280;58632;51.718;19.446;2023-02-18T11:59:53;98988.99;;;9.14;87.85
70971;BME280;58632;51.718;19.446;2023-02-18T12:05:36;98980.84;;;9.31;89.24
70971;BME280;58632;51.718;19.446;2023-02-18T12:07:57;98982.94;;;9.46;88.27
70971;BME280;58632;51.718;19.446;2023-02-18T12:12:55;98981.00;;;9.47;79.91
70971;BME280;58632;51.718;19.446;2023-02-18T12:15:26;98982.20;;;9.52;87.00
70971;BME280;58632;51.718;19.446;2023-02-18T12:20:34;98968.09;;;9.67;82.25
70971;BME280;58632;51.718;19.446;2023-02-18T12:25:39;98967.88;;;9.77;85.64
70971;BME280;58632;51.718;19.446;2023-02-18T12:35:56;98943.05;;;9.70;82.98
70971;BME280;58632;51.718;19.446;2023-02-18T12:41:15;98922.44;;;9.66;78.55
70971;BME280;58632;51.718;19.446;2023-02-18T12:49:17;98916.64;;;9.41;81.80
70971;BME280;58632;51.718;19.446;2023-02-18T12:51:54;98913.01;;;9.29;78.88
70971;BME280;58632;51.718;19.446;2023-02-18T12:57:10;98903.13;;;9.03;81.64
70971;BME280;58632;51.718;19.446;2023-02-18T13:10:11;98885.08;;;8.60;85.89
70971;BME280;58632;51.718;19.446;2023-02-18T13:12:52;98870.11;;;8.51;86.50
70971;BME280;58632;51.718;19.446;2023-02-18T13:17:59;98860.81;;;8.37;90.10
70971;BME280;58632;51.718;19.446;2023-02-18T13:20:34;98841.39;;;8.33;89.36
70971;BME280;58632;51.718;19.446;2023-02-18T13:23:01;98846.45;;;8.28;90.49
70971;BME280;58632;51.718;19.446;2023-02-18T13:25:27;98849.92;;;8.27;90.35
70971;BME280;58632;51.718;19.446;2023-02-18T13:30:48;98853.01;;;8.31;92.92
70971;BME280;58632;51.718;19.446;2023-02-18T13:33:37;98849.76;;;8.34;92.94
70971;BME280;58632;51.718;19.446;2023-02-18T13:36:08;98853.33;;;8.33;93.86
70971;BME280;58632;51.718;19.446;2023-02-18T13:41:09;98851.48;;;8.22;94.95
70971;BME280;58632;51.718;19.446;2023-02-18T13:43:35;98848.70;;;8.12;95.79
70971;BME280;58632;51.718;19.446;2023-02-18T13:48:29;98841.34;;;7.90;98.42
70971;BME280;58632;51.718;19.446;2023-02-18T13:51:02;98841.48;;;7.80;99.97
70971;BME280;58632;51.718;19.446;2023-02-18T13:53:29;98842.66;;;7.71;100.00
70971;BME280;58632;51.718;19.446;2023-02-18T13:56:02;98847.21;;;7.61;100.00
70971;BME280;58632;51.718;19.446;2023-02-18T13:58:35;98850.88;;;7.45;100.00
70971;BME280;58632;51.718;19.446;2023-02-18T14:01:04;98846.67;;;7.35;100.00
70971;BME280;58632;51.718;19.446;2023-02-18T14:05:56;98832.20;;;7.17;100.00
70971;BME280;58632;51.718;19.446;2023-02-18T14:08:35;98831.55;;;7.11;100.00
70971;BME280;58632;51.718;19.446;2023-02-18T14:16:19;98823.72;;;6.76;100.00
70971;BME280;58632;51.718;19.446;2023-02-18T14:23:37;98808.27;;;6.55;100.00
70971;BME280;58632;51.718;19.446;2023-02-18T14:31:03;98803.20;;;6.30;100.00
70971;BME280;58632;51.718;19.446;2023-02-18T14:33:30;98809.41;;;6.17;100.00
70971;BME280;58632;51.718;19.446;2023-02-18T14:36:05;98804.31;;;6.01;100.00
70971;BME280;58632;51.718;19.446;2023-02-18T14:38:52;98799.66;;;5.86;100.00
70971;BME280;58632;51.718;19.446;2023-02-18T14:49:54;98798.13;;;5.23;100.00
70971;BME280;58632;51.718;19.446;2023-02-18T14:52:28;98798.95;;;5.15;100.00